Time;durP1;ratioP1;P1;durP2;ratioP2;P2;SDS_P1;SDS_P2;PMS_P1;PMS_P2;Temp;Humidity;BMP_temperature;BMP_pressure;BME280_temperature;BME280_humidity;BME280_pressure;Samples;Min_cycle;Max_cycle;Signal;HPM_P1;HPM_P2
2022/11/28 00:01:16;;;;;;;0.70;0.70;;;;;;;-4.56;94.90;101136.03;5009929;28;20046;-85
2022/11/28 00:03:44;;;;;;;0.50;0.50;;;;;;;-4.58;94.79;101141.41;5010095;28;20518;-84
2022/11/28 00:06:11;;;;;;;0.60;0.60;;;;;;;-4.57;94.89;101139.63;5018142;28;20103;-83
2022/11/28 00:08:38;;;;;;;0.80;0.80;;;;;;;-4.55;94.74;101137.75;5011994;28;20073;-84
2022/11/28 00:11:07;;;;;;;0.60;0.60;;;;;;;-4.52;94.65;101136.69;5029553;28;20428;-83
2022/11/28 00:13:35;;;;;;;0.60;0.60;;;;;;;-4.55;94.53;101129.84;4995545;28;20479;-83
2022/11/28 00:16:05;;;;;;;0.70;0.70;;;;;;;-4.66;94.33;101135.78;5029423;28;20045;-83
2022/11/28 00:18:32;;;;;;;0.80;0.80;;;;;;;-4.66;94.59;101127.88;5029510;28;20537;-84
2022/11/28 00:21:05;;;;;;;0.60;0.60;;;;;;;-4.62;94.76;101133.78;5029288;28;20052;-83
2022/11/28 00:23:33;;;;;;;0.60;0.60;;;;;;;-4.64;94.48;101125.97;5028688;28;20053;-83
2022/11/28 00:26:05;;;;;;;0.68;0.68;;;;;;;-4.67;94.60;101130.59;5011233;28;20049;-84
2022/11/28 00:28:34;;;;;;;0.80;0.80;;;;;;;-4.71;94.65;101129.06;5029034;28;20440;-83
2022/11/28 00:31:02;;;;;;;0.80;0.80;;;;;;;-4.76;94.55;101110.06;5028570;28;20061;-83
2022/11/28 00:33:31;;;;;;;0.73;0.73;;;;;;;-4.78;94.63;101120.72;5028823;28;20046;-83
2022/11/28 00:35:59;;;;;;;0.68;0.68;;;;;;;-4.76;94.75;101123.25;5028445;28;20164;-83
2022/11/28 00:38:27;;;;;;;0.80;0.80;;;;;;;-4.74;94.80;101126.63;5028851;28;20064;-83
2022/11/28 00:41:03;;;;;;;0.60;0.60;;;;;;;-4.75;94.88;101130.22;5011131;28;20103;-84
2022/11/28 00:43:30;;;;;;;0.80;0.80;;;;;;;-4.77;94.97;101130.31;5030105;28;20057;-82
2022/11/28 00:45:57;;;;;;;0.45;0.45;;;;;;;-4.77;94.98;101124.19;5032122;28;20049;-82
2022/11/28 00:48:25;;;;;;;0.65;0.65;;;;;;;-4.79;94.78;101127.75;5014702;28;20187;-83
2022/11/28 00:50:53;;;;;;;0.70;0.70;;;;;;;-4.79;94.92;101130.38;5032320;28;20064;-83
2022/11/28 00:53:20;;;;;;;1.00;1.00;;;;;;;-4.85;95.12;101128.13;5031888;28;20420;-83
2022/11/28 00:55:47;;;;;;;0.60;0.60;;;;;;;-4.87;95.10;101132.66;5032159;28;20050;-83
2022/11/28 00:58:14;;;;;;;0.60;0.60;;;;;;;-4.83;94.96;101135.97;5030765;28;20068;-82
2022/11/28 01:00:41;;;;;;;0.80;0.80;;;;;;;-4.84;95.37;101128.97;5032303;28;20056;-83
2022/11/28 01:03:08;;;;;;;0.60;0.60;;;;;;;-4.85;94.88;101124.66;5014201;28;20053;-83
2022/11/28 01:05:40;;;;;;;0.60;0.60;;;;;;;-4.84;95.09;101114.00;5031998;28;20251;-83
2022/11/28 01:08:08;;;;;;;0.60;0.60;;;;;;;-4.88;94.98;101124.84;5020921;28;20185;-83
2022/11/28 01:10:41;;;;;;;0.68;0.68;;;;;;;-4.85;95.00;101130.78;5012284;28;20088;-84
2022/11/28 01:13:08;;;;;;;0.60;0.60;;;;;;;-4.86;94.97;101125.59;5011895;28;20456;-82
2022/11/28 01:15:39;;;;;;;0.63;0.63;;;;;;;-4.88;94.89;101133.59;5012229;28;20525;-83
2022/11/28 01:18:07;;;;;;;0.63;0.63;;;;;;;-4.86;95.15;101125.59;4994452;28;20053;-83
2022/11/28 01:20:34;;;;;;;0.60;0.60;;;;;;;-4.89;95.12;101126.63;5020203;28;20108;-84
2022/11/28 01:23:01;;;;;;;0.68;0.68;;;;;;;-4.93;95.35;101121.66;5004639;28;20080;-83
2022/11/28 01:25:28;;;;;;;0.70;0.70;;;;;;;-4.88;95.21;101140.66;5015077;28;20057;-83
2022/11/28 01:27:56;;;;;;;0.63;0.63;;;;;;;-4.87;95.37;101135.28;5014355;28;20123;-83
2022/11/28 01:30:23;;;;;;;0.80;0.80;;;;;;;-4.86;95.41;101142.25;4994225;28;20428;-83
2022/11/28 01:32:50;;;;;;;0.80;0.80;;;;;;;-4.88;95.22;101138.88;5011566;28;20045;-83
2022/11/28 01:35:17;;;;;;;0.60;0.60;;;;;;;-4.86;95.15;101141.38;4993812;28;20075;-84
2022/11/28 01:37:44;;;;;;;0.77;0.77;;;;;;;-4.90;95.02;101142.53;5012302;28;20056;-83
2022/11/28 01:40:12;;;;;;;0.80;0.80;;;;;;;-4.84;95.12;101144.78;5011480;28;20057;-82
2022/11/28 01:42:39;;;;;;;0.80;0.80;;;;;;;-4.82;95.21;101142.91;5012111;28;20567;-82
2022/11/28 01:45:13;;;;;;;0.52;0.52;;;;;;;-4.83;95.22;101133.31;5011182;28;20053;-83
2022/11/28 01:47:40;;;;;;;0.70;0.70;;;;;;;-4.81;95.25;101137.56;5011297;28;20531;-83
2022/11/28 01:50:08;;;;;;;0.70;0.70;;;;;;;-4.79;95.21;101142.72;5025975;28;20049;-83
2022/11/28 01:52:37;;;;;;;0.57;0.57;;;;;;;-4.80;95.07;101138.41;5030863;28;20111;-82
2022/11/28 01:55:06;;;;;;;0.70;0.70;;;;;;;-4.84;95.11;101132.44;5006088;28;20151;-83
2022/11/28 01:57:33;;;;;;;0.60;0.60;;;;;;;-4.78;95.11;101141.78;4984500;28;20045;-81
2022/11/28 02:00:08;;;;;;;0.50;0.50;;;;;;;-4.75;94.91;101140.75;5020714;28;20069;-81
2022/11/28 02:02:47;;;;;;;0.60;0.60;;;;;;;-4.85;94.53;101130.78;5010736;28;20073;-82
2022/11/28 02:05:16;;;;;;;0.90;0.90;;;;;;;-4.89;94.55;101131.88;5007253;28;20096;-82
2022/11/28 02:07:44;;;;;;;0.73;0.73;;;;;;;-4.91;94.46;101132.91;5031045;28;20049;-81
2022/11/28 02:10:15;;;;;;;0.60;0.60;;;;;;;-5.00;94.56;101126.44;5013845;28;20456;-80
2022/11/28 02:13:05;;;;;;;0.55;0.55;;;;;;;-4.93;94.55;101129.56;5006315;28;20205;-83
2022/11/28 02:15:39;;;;;;;0.90;0.90;;;;;;;-4.99;94.51;101146.56;5016070;28;20498;-81
2022/11/28 02:18:12;;;;;;;0.55;0.55;;;;;;;-5.03;94.34;101139.78;5021052;28;20049;-83
2022/11/28 02:21:10;;;;;;;0.60;0.60;;;;;;;-5.03;94.46;101150.31;5012919;28;20045;-83
2022/11/28 02:24:23;;;;;;;0.70;0.70;;;;;;;-5.05;94.23;101149.56;5015778;28;20962;-83
2022/11/28 02:27:04;;;;;;;0.88;0.88;;;;;;;-5.11;94.25;101157.84;4942913;29;20095;-81
2022/11/28 02:30:15;;;;;;;0.73;0.73;;;;;;;-5.13;94.07;101163.19;4921839;29;20071;-81
2022/11/28 02:32:42;;;;;;;0.80;0.80;;;;;;;-5.14;94.37;101158.88;4877087;29;20147;-82
2022/11/28 02:35:20;;;;;;;0.68;0.68;;;;;;;-5.17;94.14;101158.19;4893123;29;20125;-81
2022/11/28 02:38:01;;;;;;;0.80;0.80;;;;;;;-5.19;94.42;101162.69;4878952;29;20063;-84
2022/11/28 02:40:30;;;;;;;0.80;0.80;;;;;;;-5.20;94.57;101168.91;4895740;29;20097;-82
2022/11/28 02:43:14;;;;;;;0.57;0.57;;;;;;;-5.21;94.30;101165.44;4892684;29;20061;-83
2022/11/28 02:46:16;;;;;;;0.80;0.80;;;;;;;-5.25;94.94;101154.22;4874447;29;20085;-81
2022/11/28 02:49:05;;;;;;;0.70;0.70;;;;;;;-5.23;94.80;101168.16;4835851;29;20064;-81
2022/11/28 02:51:55;;;;;;;0.70;0.70;;;;;;;-5.27;94.68;101169.25;4818731;29;20062;-81
2022/11/28 02:54:32;;;;;;;0.63;0.63;;;;;;;-5.25;94.68;101162.13;4818633;29;20058;-81
2022/11/28 02:57:13;;;;;;;0.70;0.70;;;;;;;-5.25;94.74;101171.81;4837754;29;20067;-81
2022/11/28 02:59:40;;;;;;;0.68;0.68;;;;;;;-5.24;95.05;101170.88;4873904;29;20053;-82
2022/11/28 03:02:30;;;;;;;0.75;0.75;;;;;;;-5.27;94.75;101156.09;4873528;29;20053;-81
2022/11/28 03:05:12;;;;;;;0.65;0.65;;;;;;;-5.26;95.21;101176.22;4857816;29;20071;-81
2022/11/28 03:07:51;;;;;;;0.70;0.70;;;;;;;-5.25;95.05;101174.44;4862213;29;20164;-82
2022/11/28 03:10:49;;;;;;;0.70;0.70;;;;;;;-5.29;94.98;101173.78;4892365;29;20064;-82
2022/11/28 03:13:28;;;;;;;0.60;0.60;;;;;;;-5.28;95.02;101179.88;4896083;29;20136;-82
2022/11/28 03:16:05;;;;;;;0.80;0.80;;;;;;;-5.27;95.11;101185.03;4893293;29;20052;-83
2022/11/28 03:18:39;;;;;;;0.85;0.85;;;;;;;-5.25;95.17;101182.34;4892209;29;20044;-82
2022/11/28 03:21:25;;;;;;;0.70;0.70;;;;;;;-5.30;94.90;101190.50;4892195;29;20513;-82
2022/11/28 03:23:56;;;;;;;0.60;0.60;;;;;;;-5.34;94.87;101183.72;4892502;29;20059;-82
2022/11/28 03:26:29;;;;;;;0.70;0.70;;;;;;;-5.35;94.95;101189.06;5008609;28;20104;-82
2022/11/28 03:29:05;;;;;;;0.80;0.80;;;;;;;-5.39;94.89;101195.44;5008473;28;20108;-81
2022/11/28 03:31:37;;;;;;;0.70;0.70;;;;;;;-5.42;95.23;101188.56;5009806;28;20061;-83
2022/11/28 03:34:06;;;;;;;0.47;0.47;;;;;;;-5.39;95.20;101196.31;5008406;28;20164;-82
2022/11/28 03:36:51;;;;;;;0.55;0.55;;;;;;;-5.38;95.27;101198.00;5011999;28;20054;-81
2022/11/28 03:39:21;;;;;;;0.80;0.80;;;;;;;-5.41;95.30;101192.06;5029515;28;20055;-82
2022/11/28 03:42:08;;;;;;;0.70;0.70;;;;;;;-5.40;95.20;101199.84;5012166;28;20140;-81
2022/11/28 03:44:47;;;;;;;0.70;0.70;;;;;;;-5.40;95.48;101206.91;5028268;28;20144;-81
2022/11/28 03:47:14;;;;;;;0.60;0.60;;;;;;;-5.41;95.55;101199.97;5011875;28;20569;-83
2022/11/28 03:49:46;;;;;;;0.80;0.80;;;;;;;-5.38;95.62;101205.06;5030191;28;20099;-83
2022/11/28 03:52:40;;;;;;;0.70;0.70;;;;;;;-5.40;95.34;101199.03;5013126;28;20140;-83
2022/11/28 03:55:13;;;;;;;0.70;0.70;;;;;;;-5.45;95.65;101209.81;5010590;28;20422;-82
2022/11/28 03:57:43;;;;;;;0.85;0.85;;;;;;;-5.44;95.67;101208.88;5019581;28;20046;-83
2022/11/28 04:00:11;;;;;;;0.80;0.80;;;;;;;-5.41;95.64;101213.13;5027168;28;20069;-87
2022/11/28 04:02:51;;;;;;;0.70;0.70;;;;;;;-5.42;95.71;101206.16;5010076;28;20054;-83
2022/11/28 04:05:43;;;;;;;0.80;0.80;;;;;;;-5.39;95.85;101209.47;5009952;28;20049;-84
2022/11/28 04:08:17;;;;;;;0.60;0.60;;;;;;;-5.42;95.84;101207.00;4996061;28;20104;-84
2022/11/28 04:11:08;;;;;;;0.57;0.57;;;;;;;-5.39;95.91;101209.47;5021341;28;20054;-85
2022/11/28 04:14:16;;;;;;;0.70;0.70;;;;;;;-5.40;96.08;101199.03;5028478;28;20054;-84
2022/11/28 04:16:57;;;;;;;0.70;0.70;;;;;;;-5.48;96.15;101202.09;5030101;28;20144;-84
2022/11/28 04:19:36;;;;;;;0.90;0.90;;;;;;;-5.37;95.94;101204.94;5003176;28;20144;-83
2022/11/28 04:22:13;;;;;;;0.90;0.90;;;;;;;-5.34;96.04;101212.69;5023493;28;20500;-83
2022/11/28 04:24:45;;;;;;;0.75;0.75;;;;;;;-5.36;95.93;101218.97;4996070;28;20441;-82
2022/11/28 04:27:16;;;;;;;0.82;0.82;;;;;;;-5.40;95.63;101209.53;5020335;28;20073;-83
2022/11/28 04:29:47;;;;;;;0.68;0.68;;;;;;;-5.44;95.05;101222.03;5007376;28;20148;-85
2022/11/28 04:32:18;;;;;;;0.80;0.80;;;;;;;-5.50;94.81;101220.59;5005580;28;20081;-86
2022/11/28 04:34:50;;;;;;;0.75;0.75;;;;;;;-5.50;94.65;101219.75;4993664;28;20046;-86
2022/11/28 04:37:18;;;;;;;0.82;0.82;;;;;;;-5.42;94.51;101232.47;5010531;28;20053;-85
2022/11/28 04:39:47;;;;;;;0.57;0.57;;;;;;;-5.44;94.26;101229.94;5011152;28;20120;-85
2022/11/28 04:42:17;;;;;;;0.70;0.70;;;;;;;-5.45;94.08;101230.84;5014487;28;20049;-85
2022/11/28 04:44:54;;;;;;;0.77;0.77;;;;;;;-5.41;93.83;101229.75;5009985;28;20045;-86
2022/11/28 04:47:22;;;;;;;0.80;0.80;;;;;;;-5.44;93.56;101237.84;5017374;28;20455;-88
2022/11/28 04:49:49;;;;;;;0.55;0.55;;;;;;;-5.41;93.57;101245.56;5017776;28;20053;-88
2022/11/28 04:52:39;;;;;;;0.90;0.90;;;;;;;-5.42;93.24;101248.25;5036951;28;20057;-88
2022/11/28 04:55:11;;;;;;;0.68;0.68;;;;;;;-5.45;93.11;101244.03;4647116;28;9999827;-87
2022/11/28 04:57:44;;;;;;;0.80;0.80;;;;;;;-5.48;93.22;101252.94;4999397;28;20049;-86
2022/11/28 05:00:18;;;;;;;0.60;0.60;;;;;;;-5.45;93.25;101246.66;4999948;28;20057;-87
2022/11/28 05:02:51;;;;;;;0.60;0.60;;;;;;;-5.38;93.25;101255.91;5016784;28;20050;-86
2022/11/28 05:05:22;;;;;;;0.90;0.90;;;;;;;-5.32;93.43;101252.91;5025358;28;20065;-88
2022/11/28 05:07:51;;;;;;;0.60;0.60;;;;;;;-5.27;93.33;101257.91;5019550;28;20756;-88
2022/11/28 05:10:19;;;;;;;0.80;0.80;;;;;;;-5.26;93.21;101252.56;5012613;28;20046;-85
2022/11/28 05:12:46;;;;;;;0.77;0.77;;;;;;;-5.34;93.01;101249.53;5022901;28;20046;-86
2022/11/28 05:15:19;;;;;;;0.80;0.80;;;;;;;-5.32;92.96;101249.44;4994074;28;20045;-89
2022/11/28 05:17:46;;;;;;;0.60;0.60;;;;;;;-5.41;93.00;101253.44;4998806;28;20069;-89
2022/11/28 05:20:23;;;;;;;0.77;0.77;;;;;;;-5.39;92.94;101263.88;4995413;28;20136;-86
2022/11/28 05:22:50;;;;;;;0.77;0.77;;;;;;;-5.43;92.92;101268.47;5001112;28;20421;-87
2022/11/28 05:25:17;;;;;;;0.50;0.50;;;;;;;-5.48;92.82;101249.47;5011795;28;20050;-87
2022/11/28 05:27:44;;;;;;;0.80;0.80;;;;;;;-5.45;92.82;101272.97;5010327;28;20096;-85
2022/11/28 05:30:12;;;;;;;0.63;0.63;;;;;;;-5.51;92.51;101278.59;5004392;28;20521;-88
2022/11/28 05:32:40;;;;;;;0.60;0.60;;;;;;;-5.56;92.07;101280.63;4998045;28;20070;-84
2022/11/28 05:35:07;;;;;;;0.90;0.90;;;;;;;-5.51;91.71;101289.94;4992768;28;20160;-87
2022/11/28 05:37:34;;;;;;;0.70;0.70;;;;;;;-5.47;91.67;101299.38;4993492;28;20054;-83
2022/11/28 05:40:01;;;;;;;0.82;0.82;;;;;;;-5.47;91.39;101298.50;4992815;28;20054;-84
2022/11/28 05:42:32;;;;;;;0.70;0.70;;;;;;;-5.53;91.06;101304.13;4994808;28;20051;-82
2022/11/28 05:44:59;;;;;;;0.80;0.80;;;;;;;-5.58;90.69;101296.47;5007683;28;20054;-83
2022/11/28 05:47:29;;;;;;;0.65;0.65;;;;;;;-5.61;90.61;101304.56;5003861;28;20183;-83
2022/11/28 05:49:56;;;;;;;0.80;0.80;;;;;;;-5.66;90.32;101306.59;5006041;28;20060;-84
2022/11/28 05:52:24;;;;;;;0.68;0.68;;;;;;;-5.68;90.08;101311.91;5014832;28;20054;-83
2022/11/28 05:54:51;;;;;;;0.60;0.60;;;;;;;-5.69;90.07;101315.50;5009208;28;20073;-83
2022/11/28 05:57:18;;;;;;;0.80;0.80;;;;;;;-5.63;90.05;101319.56;4999539;28;20054;-82
2022/11/28 05:59:45;;;;;;;0.80;0.80;;;;;;;-5.59;90.22;101305.31;4999840;28;20078;-83
2022/11/28 06:02:12;;;;;;;0.60;0.60;;;;;;;-5.55;90.17;101321.78;5000400;28;20532;-83
2022/11/28 06:04:40;;;;;;;0.90;0.90;;;;;;;-5.58;90.28;101304.38;4999346;28;20050;-83
2022/11/28 06:07:08;;;;;;;0.90;0.90;;;;;;;-5.56;90.42;101315.69;4994473;28;20429;-83
2022/11/28 06:09:35;;;;;;;0.65;0.65;;;;;;;-5.56;90.24;101310.41;4998932;28;20054;-83
2022/11/28 06:12:02;;;;;;;0.63;0.63;;;;;;;-5.48;90.22;101317.88;5004064;28;20046;-83
2022/11/28 06:14:29;;;;;;;0.90;0.90;;;;;;;-5.60;89.99;101313.28;5003497;28;20057;-84
2022/11/28 06:16:56;;;;;;;0.88;0.88;;;;;;;-5.50;89.70;101323.22;4998639;28;20058;-82
2022/11/28 06:19:24;;;;;;;0.70;0.70;;;;;;;-5.55;89.72;101322.63;5001719;28;20144;-83
2022/11/28 06:21:52;;;;;;;0.85;0.85;;;;;;;-5.54;89.53;101319.06;4976550;28;20082;-83
2022/11/28 06:24:19;;;;;;;0.70;0.70;;;;;;;-5.50;89.39;101317.09;4973851;28;20046;-82
2022/11/28 06:26:46;;;;;;;0.80;0.80;;;;;;;-5.52;89.09;101318.97;5001079;28;20046;-83
2022/11/28 06:29:13;;;;;;;0.93;0.93;;;;;;;-5.51;89.32;101316.28;5003707;28;20605;-82
2022/11/28 06:31:40;;;;;;;0.88;0.88;;;;;;;-5.56;88.82;101320.94;5019679;28;20053;-82
2022/11/28 06:34:10;;;;;;;0.70;0.70;;;;;;;-5.48;89.02;101333.66;5017961;28;20077;-83
2022/11/28 06:36:38;;;;;;;0.60;0.60;;;;;;;-5.45;88.84;101328.22;5018049;28;20149;-83
2022/11/28 06:39:05;;;;;;;0.60;0.60;;;;;;;-5.42;88.69;101328.06;5018929;28;20424;-83
2022/11/28 06:41:35;;;;;;;0.80;0.80;;;;;;;-5.38;88.55;101345.38;5018574;28;20050;-83
2022/11/28 06:44:02;;;;;;;0.90;0.90;;;;;;;-5.37;88.44;101331.28;5021524;28;20065;-83
2022/11/28 06:46:29;;;;;;;0.80;0.80;;;;;;;-5.36;88.52;101327.72;5016997;28;20049;-85
2022/11/28 06:48:57;;;;;;;0.80;0.80;;;;;;;-5.39;88.44;101333.19;5032578;28;20088;-83
2022/11/28 06:51:24;;;;;;;0.65;0.65;;;;;;;-5.40;88.15;101318.28;4981188;28;20052;-84
2022/11/28 06:53:53;;;;;;;0.80;0.80;;;;;;;-5.40;87.83;101334.09;5014888;28;20516;-83
2022/11/28 06:56:20;;;;;;;0.60;0.60;;;;;;;-5.39;87.64;101335.81;5030600;28;20045;-85
2022/11/28 06:58:53;;;;;;;0.68;0.68;;;;;;;-5.42;87.86;101317.53;5030584;28;20170;-84
2022/11/28 07:01:22;;;;;;;0.80;0.80;;;;;;;-5.46;87.46;101342.34;5031169;28;20053;-82
2022/11/28 07:03:49;;;;;;;0.60;0.60;;;;;;;-5.46;87.41;101342.34;5031140;28;20057;-82
2022/11/28 07:06:18;;;;;;;0.57;0.57;;;;;;;-5.45;87.58;101338.75;5012957;28;20057;-85
2022/11/28 07:08:45;;;;;;;0.80;0.80;;;;;;;-5.43;87.79;101334.25;5030990;28;20077;-83
2022/11/28 07:11:17;;;;;;;0.52;0.52;;;;;;;-5.36;87.84;101333.00;5031010;28;20136;-83
2022/11/28 07:13:45;;;;;;;0.90;0.90;;;;;;;-5.35;87.52;101339.09;5031171;28;20069;-82
2022/11/28 07:16:18;;;;;;;0.60;0.60;;;;;;;-5.37;87.67;101333.91;5013602;28;20141;-82
2022/11/28 07:18:46;;;;;;;1.05;1.05;;;;;;;-5.37;87.55;101336.53;5031069;28;20064;-82
2022/11/28 07:21:20;;;;;;;0.90;0.90;;;;;;;-5.45;87.50;101333.50;5030221;28;20505;-83
2022/11/28 07:23:47;;;;;;;0.80;0.80;;;;;;;-5.46;87.68;101337.91;5030605;28;20049;-84
2022/11/28 07:26:18;;;;;;;0.80;0.80;;;;;;;-5.34;87.58;101352.19;5030306;28;20099;-82
2022/11/28 07:28:46;;;;;;;0.88;0.88;;;;;;;-5.32;87.55;101337.13;5029309;28;20140;-81
2022/11/28 07:31:16;;;;;;;0.52;0.52;;;;;;;-5.33;87.62;101348.63;5030468;28;20050;-83
2022/11/28 07:33:45;;;;;;;0.70;0.70;;;;;;;-5.28;87.27;101348.38;5012903;28;20049;-81
2022/11/28 07:36:20;;;;;;;0.70;0.70;;;;;;;-5.26;87.38;101349.97;5030063;28;20154;-82
2022/11/28 07:38:56;;;;;;;0.80;0.80;;;;;;;-5.30;87.14;101337.91;5013559;28;20103;-82
2022/11/28 07:41:24;;;;;;;0.70;0.70;;;;;;;-5.29;87.11;101338.75;5029877;28;20646;-82
2022/11/28 07:43:55;;;;;;;0.80;0.80;;;;;;;-5.28;86.91;101340.47;5029982;28;20057;-82
2022/11/28 07:46:23;;;;;;;0.63;0.63;;;;;;;-5.21;86.74;101346.25;5029656;28;20045;-82
2022/11/28 07:48:50;;;;;;;0.60;0.60;;;;;;;-5.23;86.72;101347.16;5029949;28;20392;-81
2022/11/28 07:51:23;;;;;;;0.52;0.52;;;;;;;-5.19;86.55;101349.63;5029908;28;20057;-81
2022/11/28 07:53:55;;;;;;;0.93;0.93;;;;;;;-5.15;86.29;101345.91;5033869;28;20136;-82
2022/11/28 07:56:25;;;;;;;0.60;0.60;;;;;;;-5.10;86.57;101355.22;5033890;28;20382;-81
2022/11/28 07:59:10;;;;;;;0.70;0.70;;;;;;;-5.04;86.24;101362.78;5033770;28;20054;-82
2022/11/28 08:01:38;;;;;;;0.90;0.90;;;;;;;-5.07;86.04;101355.03;5034050;28;20053;-81
2022/11/28 08:04:06;;;;;;;0.70;0.70;;;;;;;-5.07;86.15;101357.69;5034091;28;20053;-82
2022/11/28 08:06:39;;;;;;;0.70;0.70;;;;;;;-5.08;85.92;101345.47;5016256;28;20098;-82
2022/11/28 08:09:07;;;;;;;0.65;0.65;;;;;;;-4.99;85.99;101361.66;5033777;28;20068;-82
2022/11/28 08:11:34;;;;;;;0.63;0.63;;;;;;;-5.02;85.92;101363.53;5016158;28;20059;-82
2022/11/28 08:14:01;;;;;;;0.90;0.90;;;;;;;-4.92;85.70;101353.31;5026591;28;20054;-82
2022/11/28 08:16:30;;;;;;;0.50;0.50;;;;;;;-4.97;85.80;101363.28;5016813;28;20065;-88
2022/11/28 08:19:14;;;;;;;0.70;0.70;;;;;;;-5.01;85.31;101362.63;5010119;28;20142;-91
2022/11/28 08:21:43;;;;;;;0.80;0.80;;;;;;;-5.05;85.39;101378.66;4914890;29;20055;-83
2022/11/28 08:24:11;;;;;;;0.80;0.80;;;;;;;-5.06;85.46;101361.19;4932877;29;20051;-85
2022/11/28 08:26:39;;;;;;;0.80;0.80;;;;;;;-5.03;85.68;101361.84;4916927;29;20062;-84
2022/11/28 08:29:06;;;;;;;0.70;0.70;;;;;;;-4.93;85.61;101377.13;4935869;29;20158;-85
2022/11/28 08:31:35;;;;;;;0.60;0.60;;;;;;;-4.96;85.74;101372.91;4936152;29;20048;-85
2022/11/28 08:34:05;;;;;;;0.77;0.77;;;;;;;-4.86;85.61;101373.19;4936349;29;20460;-84
2022/11/28 08:36:35;;;;;;;0.80;0.80;;;;;;;-4.88;85.41;101373.31;4935624;29;20662;-85
2022/11/28 08:39:04;;;;;;;0.75;0.75;;;;;;;-4.79;85.12;101372.75;4917457;29;20138;-84
2022/11/28 08:41:55;;;;;;;0.77;0.77;;;;;;;-4.73;85.02;101378.66;4946659;29;20086;-86
2022/11/28 08:44:27;;;;;;;0.75;0.75;;;;;;;-4.66;84.92;101382.59;4885554;29;20057;-85
2022/11/28 08:46:59;;;;;;;0.90;0.90;;;;;;;-4.56;84.91;101381.13;4916991;29;20507;-86
2022/11/28 08:49:26;;;;;;;0.85;0.85;;;;;;;-4.61;84.46;101376.16;4932956;29;20415;-84
2022/11/28 08:51:53;;;;;;;0.80;0.80;;;;;;;-4.74;84.20;101375.13;4932637;29;20660;-85
2022/11/28 08:54:20;;;;;;;0.85;0.85;;;;;;;-4.76;84.56;101384.06;4932361;29;20052;-85
2022/11/28 08:56:47;;;;;;;0.60;0.60;;;;;;;-4.73;84.78;101386.53;4932295;29;20083;-83
2022/11/28 08:59:14;;;;;;;0.90;0.90;;;;;;;-4.76;84.71;101376.16;4600472;28;10000022;-86
2022/11/28 09:01:44;;;;;;;0.75;0.75;;;;;;;-4.80;84.41;101389.50;4935155;29;20055;-84
2022/11/28 09:04:12;;;;;;;0.60;0.60;;;;;;;-4.92;84.41;101378.81;4916350;29;20054;-84
2022/11/28 09:06:39;;;;;;;0.90;0.90;;;;;;;-4.94;84.58;101385.97;4934009;29;20052;-84
2022/11/28 09:09:07;;;;;;;0.85;0.85;;;;;;;-4.89;84.85;101384.75;4941736;29;20047;-84
2022/11/28 09:11:35;;;;;;;0.63;0.63;;;;;;;-4.86;84.66;101392.50;4945098;29;20066;-84
2022/11/28 09:14:05;;;;;;;0.80;0.80;;;;;;;-4.92;84.67;101382.31;4924486;29;20121;-84
2022/11/28 09:16:32;;;;;;;0.77;0.77;;;;;;;-4.92;84.35;101394.63;4940230;29;20544;-85
2022/11/28 09:18:59;;;;;;;0.70;0.70;;;;;;;-4.92;84.36;101379.66;4906953;29;20048;-83
2022/11/28 09:21:27;;;;;;;0.70;0.70;;;;;;;-4.94;84.19;101381.53;4929857;29;20047;-84
2022/11/28 09:24:00;;;;;;;0.70;0.70;;;;;;;-4.85;83.75;101386.28;4953266;29;20121;-85
2022/11/28 09:26:30;;;;;;;0.70;0.70;;;;;;;-4.86;83.96;101387.25;4917719;29;20121;-84
2022/11/28 09:28:57;;;;;;;0.80;0.80;;;;;;;-4.77;83.52;101392.91;4934525;29;20502;-86
2022/11/28 09:31:25;;;;;;;0.57;0.57;;;;;;;-4.85;83.44;101374.91;4939944;29;20051;-85
2022/11/28 09:33:52;;;;;;;0.80;0.80;;;;;;;-4.74;83.41;101392.72;4912189;29;20082;-85
2022/11/28 09:36:23;;;;;;;0.60;0.60;;;;;;;-4.70;83.47;101391.63;4945339;29;20102;-83
2022/11/28 09:38:51;;;;;;;0.73;0.73;;;;;;;-4.68;84.02;101392.41;4954225;29;20147;-83
2022/11/28 09:41:41;;;;;;;0.55;0.55;;;;;;;-4.66;84.20;101401.91;4953939;29;20059;-82
2022/11/28 09:44:35;;;;;;;0.70;0.70;;;;;;;-4.72;84.40;101396.97;4924571;29;20561;-83
2022/11/28 09:47:05;;;;;;;0.70;0.70;;;;;;;-4.82;84.50;101391.38;4957268;29;20058;-87
2022/11/28 09:49:45;;;;;;;0.60;0.60;;;;;;;-4.77;84.70;101390.28;4944635;29;20051;-85
2022/11/28 09:52:20;;;;;;;0.65;0.65;;;;;;;-4.85;84.94;101394.19;4936948;29;20439;-83
2022/11/28 09:54:50;;;;;;;;;;;;;;;-4.85;85.06;101391.56;4923003;29;21517;-82
2022/11/28 09:57:36;;;;;;;0.85;0.85;;;;;;;-4.84;85.17;101389.78;4912703;29;19926;-84
2022/11/28 10:00:05;;;;;;;0.80;0.80;;;;;;;-4.86;85.16;101389.00;4940982;29;20098;-85
2022/11/28 10:03:08;;;;;;;0.70;0.70;;;;;;;-4.84;85.28;101377.44;4932713;29;20061;-84
2022/11/28 10:05:35;;;;;;;0.75;0.75;;;;;;;-4.93;84.96;101388.53;4942900;28;20051;-84
2022/11/28 10:08:44;;;;;;;0.65;0.65;;;;;;;-4.89;85.12;101379.50;4945630;29;20066;-84
2022/11/28 10:11:49;;;;;;;0.70;0.70;;;;;;;-4.86;85.06;101387.25;4953222;29;20047;-84
2022/11/28 10:14:42;;;;;;;0.70;0.70;;;;;;;-4.91;85.25;101380.50;4937329;28;20070;-84
2022/11/28 10:17:27;;;;;;;0.70;0.70;;;;;;;-4.87;85.24;101385.53;4947209;29;20059;-84
2022/11/28 10:20:15;;;;;;;0.57;0.57;;;;;;;-4.84;85.09;101382.72;4934672;29;20059;-84
2022/11/28 10:22:44;;;;;;;0.70;0.70;;;;;;;-4.81;84.47;101381.69;4939837;29;20118;-85
2022/11/28 10:25:20;;;;;;;0.60;0.60;;;;;;;-4.86;83.71;101376.72;4938264;29;20527;-84
2022/11/28 10:27:48;;;;;;;0.60;0.60;;;;;;;-4.82;83.35;101380.84;4936807;29;20054;-84
2022/11/28 10:30:18;;;;;;;0.57;0.57;;;;;;;-4.74;82.96;101385.66;4920447;29;20106;-84
2022/11/28 10:32:54;;;;;;;0.70;0.70;;;;;;;-4.79;82.34;101382.47;4923714;29;20043;-83
2022/11/28 10:35:41;;;;;;;0.73;0.73;;;;;;;-4.77;81.72;101375.31;4922046;29;20047;-82
2022/11/28 10:38:13;;;;;;;0.60;0.60;;;;;;;-4.79;82.03;101380.66;4921733;29;20059;-84
2022/11/28 10:40:51;;;;;;;0.52;0.52;;;;;;;-4.70;81.81;101381.09;4951205;29;20062;-84
2022/11/28 10:43:24;;;;;;;0.60;0.60;;;;;;;-4.73;81.66;101389.19;4917121;29;20093;-86
2022/11/28 10:46:30;;;;;;;0.57;0.57;;;;;;;-4.72;81.71;101390.88;4919477;29;20065;-84
2022/11/28 10:49:30;;;;;;;0.70;0.70;;;;;;;-4.77;81.83;101390.28;4934394;29;20078;-85
2022/11/28 10:52:21;;;;;;;0.70;0.70;;;;;;;-4.74;81.54;101392.72;4924131;29;20071;-83
2022/11/28 10:55:03;;;;;;;0.70;0.70;;;;;;;-4.74;81.71;101392.72;4916641;29;20057;-83
2022/11/28 10:58:02;;;;;;;;;;;;;;;-4.77;81.63;101385.00;4919510;29;20059;-84
2022/11/28 11:00:29;;;;;;;1.00;1.00;;;;;;;-4.77;82.01;101385.00;4942157;28;20310;-84
2022/11/28 11:03:01;;;;;;;0.77;0.77;;;;;;;-4.77;82.20;101366.56;4937027;28;20115;-84
2022/11/28 11:05:31;;;;;;;0.70;0.70;;;;;;;-4.80;81.87;101373.72;4935761;29;20139;-84
2022/11/28 11:08:07;;;;;;;0.80;0.80;;;;;;;-4.82;81.83;101378.22;4947377;28;20047;-84
2022/11/28 11:10:45;;;;;;;0.68;0.68;;;;;;;-4.86;81.92;101389.00;4942374;29;20059;-83
2022/11/28 11:13:15;;;;;;;0.73;0.73;;;;;;;-4.86;82.02;101384.59;4918192;29;20059;-83
2022/11/28 11:15:44;;;;;;;0.50;0.50;;;;;;;-4.84;81.58;101392.41;4918916;29;20043;-83
2022/11/28 11:18:45;;;;;;;0.60;0.60;;;;;;;-4.78;81.35;101397.34;4891382;29;20541;-84
2022/11/28 11:21:19;;;;;;;0.70;0.70;;;;;;;-4.82;81.42;101391.38;4928589;29;20454;-84
2022/11/28 11:23:48;;;;;;;0.75;0.75;;;;;;;-4.91;81.53;101385.78;4931341;29;20059;-86
2022/11/28 11:26:24;;;;;;;0.65;0.65;;;;;;;-4.88;81.74;101386.47;4913555;29;20473;-84
2022/11/28 11:28:58;;;;;;;0.70;0.70;;;;;;;-4.87;81.78;101396.06;4929360;29;20051;-91
2022/11/28 11:31:38;;;;;;;0.75;0.75;;;;;;;-4.98;82.05;101390.56;4899306;23;20539;-84
2022/11/28 11:34:15;;;;;;;0.70;0.70;;;;;;;-4.91;82.36;101397.19;4952369;28;20081;-84
2022/11/28 11:36:43;;;;;;;0.70;0.70;;;;;;;-4.94;81.94;101412.31;4950224;28;20073;-84
2022/11/28 11:39:11;;;;;;;0.88;0.88;;;;;;;-5.01;81.91;101404.75;4984981;28;20104;-84
2022/11/28 11:41:42;;;;;;;0.73;0.73;;;;;;;-5.14;81.36;101392.34;4965167;28;20058;-83
2022/11/28 11:44:35;;;;;;;0.70;0.70;;;;;;;-5.09;81.51;101406.09;4956200;28;20062;-82
2022/11/28 11:47:05;;;;;;;0.70;0.70;;;;;;;-5.05;81.50;101410.28;4975079;28;20418;-82
2022/11/28 11:49:37;;;;;;;0.77;0.77;;;;;;;-5.02;81.38;101408.31;4972006;28;20112;-83
2022/11/28 11:52:11;;;;;;;0.80;0.80;;;;;;;-5.07;81.55;101410.34;4981989;28;20128;-85
2022/11/28 11:55:03;;;;;;;0.60;0.60;;;;;;;-5.18;81.84;101393.47;4956677;28;20055;-84